Impacts TAF Board INFO
FOR SITUATIONAL AWARENESS. NOT TO BE USED FOR FLIGHT PLANNING PURPOSES.
IDs:

KIAD - Washington/Dulles In, VA, US

Issued at 0859 UTC 27 May 2017
Updated at 1000 UTC 27 May 2017
Potential Impact None Slight Moderate High
Time0952Z 27/10Z 27/11Z 27/12Z 27/13Z 27/14Z 27/15Z 27/16Z 27/17Z 27/18Z 27/19Z 27/20Z 27/21Z 27/22Z>>
Type OBS PRVL PRVL PRVL PRVL PRVL PRVL PRVL PRVL PRVL PRVL PRVL PRVL PRVL
VIS 10 >6 >6 >6 >6 >6 >6 >6 >6 >6 >6 >6 >6 >6
CIG -- -- -- 50 50 50 50 50 50 40 40 40 40 40
Cover SCT SCT SCT BKN BKN BKN BKN BKN BKN BKN BKN BKN BKN BKN
FltCat VFR VFR VFR VFR VFR VFR VFR VFR VFR VFR VFR VFR VFR VFR
WX -- -- -- -SHRA -SHRA -SHRA -SHRA -SHRA -SHRA -- -- -- -- --
WDir 130 VRB VRB VRB VRB VRB VRB VRB VRB 60 60 60 60 60
WSpd 5 3 3 3 3 3 3 3 3 5 5 5 5 5
WGst -- -- -- -- -- -- -- -- -- -- -- -- -- --

Raw TAF
KIAD 270859Z 2709/2812 VRB03KT P6SM SCT060 SCT150
  FM271200 VRB03KT P6SM -SHRA BKN050
  FM271800 06005KT P6SM BKN040
  FM280000 03004KT 5SM -SHRA BKN050
  FM280200 02004KT 5SM -SHRA SCT050
  FM280400 VRB03KT P6SM -SHRA SCT030
  FM280600 00000KT P6SM BKN030


Raw METAR
KIAD 270952Z 13005KT 10SM FEW060 SCT150 13/12 A2988 RMK AO2 SLP116 T01330122
KIAD 270852Z 12003KT 10SM SCT060 SCT150 13/12 A2992 RMK AO2 SLP130 T01330122 50003
KIAD 270752Z 00000KT 10SM BKN050 14/13 A2993 RMK AO2 SLP135 T01390128
KIAD 270652Z 00000KT 10SM FEW050 FEW160 14/12 A2993 RMK AO2 SLP132 T01390122

METAR Board
Radar Display
Forecast Discussion

FOR SITUATIONAL AWARENESS. NOT TO BE USED FOR FLIGHT PLANNING PURPOSES.

Page loaded:  10:00 UTC  |   03:00 AM Pacific  |   04:00 AM Mountain  |   05:00 AM Central  |   06:00 AM Eastern

 

ADVISORIES

FORECASTS

FORECASTS

OBSERVATIONS

USER TOOLS

ABOUT US